Time;durP1;ratioP1;P1;durP2;ratioP2;P2;SDS_P1;SDS_P2;PMS_P1;PMS_P2;Temp;Humidity;BMP_temperature;BMP_pressure;BME280_temperature;BME280_humidity;BME280_pressure;Samples;Min_cycle;Max_cycle;Signal;HPM_P1;HPM_P2
2022/07/19 00:01:59;;;;;;;0.40;0.40;;;;;;;22.17;35.56;100157.31;4387468;32;33369;-79
2022/07/19 00:04:29;;;;;;;1.92;0.70;;;;;;;22.23;35.39;100150.00;4392695;32;32577;-78
2022/07/19 00:07:02;;;;;;;0.40;0.40;;;;;;;22.25;36.00;100156.91;4387730;32;33768;-79
2022/07/19 00:09:31;;;;;;;1.37;0.68;;;;;;;22.10;36.04;100155.94;4387845;32;34219;-79
2022/07/19 00:12:02;;;;;;;1.20;0.77;;;;;;;22.19;35.61;100156.38;4387849;32;33603;-80
2022/07/19 00:14:32;;;;;;;1.12;0.65;;;;;;;22.17;35.54;100157.31;4387306;32;34688;-80
2022/07/19 00:17:01;;;;;;;0.50;0.50;;;;;;;21.87;36.45;100156.31;4392643;32;34830;-80
2022/07/19 00:19:38;;;;;;;1.05;0.70;;;;;;;22.06;35.74;100159.69;4387639;32;33171;-80
2022/07/19 00:22:17;;;;;;;0.60;0.60;;;;;;;21.95;35.93;100152.31;4387469;32;33626;-80
2022/07/19 00:24:47;;;;;;;1.45;0.73;;;;;;;22.10;35.53;100155.94;4387562;32;33739;-80
2022/07/19 00:27:18;;;;;;;7.78;0.80;;;;;;;21.80;36.30;100157.56;4387479;32;33789;-78
2022/07/19 00:29:51;;;;;;;1.25;0.77;;;;;;;21.95;36.13;100149.69;4388575;32;33863;-79
2022/07/19 00:32:20;;;;;;;1.42;0.77;;;;;;;21.97;36.12;100148.75;4392330;32;33481;-80
2022/07/19 00:34:49;;;;;;;0.70;0.60;;;;;;;22.01;36.21;100150.28;4389195;32;33840;-79
2022/07/19 00:37:19;;;;;;;0.70;0.70;;;;;;;21.98;36.28;100147.81;4388791;32;33967;-79
2022/07/19 00:39:50;;;;;;;0.77;0.50;;;;;;;21.95;36.18;100156.75;4387715;32;34561;-78
2022/07/19 00:42:20;;;;;;;1.80;0.68;;;;;;;21.92;36.58;100146.34;4387377;32;33236;-79
2022/07/19 00:45:00;;;;;;;0.40;0.40;;;;;;;22.06;36.15;100154.41;4389592;32;34540;-79
2022/07/19 00:47:36;;;;;;;2.22;0.80;;;;;;;22.24;34.61;100157.03;4392203;32;34161;-80
2022/07/19 00:50:06;;;;;;;0.37;0.37;;;;;;;21.98;35.99;100156.59;4387365;32;34261;-80
2022/07/19 00:52:39;;;;;;;1.35;0.70;;;;;;;21.97;36.25;100154.03;4387693;32;34115;-80
2022/07/19 00:55:09;;;;;;;0.60;0.60;;;;;;;21.79;36.21;100154.06;4387851;32;32774;-79
2022/07/19 00:57:39;;;;;;;0.62;0.40;;;;;;;21.48;37.35;100163.56;4387087;32;34762;-79
2022/07/19 01:00:11;;;;;;;2.58;0.60;;;;;;;21.90;36.06;100154.34;4389415;32;34791;-79
2022/07/19 01:02:40;;;;;;;1.33;0.82;;;;;;;21.95;36.78;100154.97;4391673;32;34361;-79
2022/07/19 01:05:11;;;;;;;0.47;0.47;;;;;;;22.08;36.43;100160.44;4371861;32;34439;-78
2022/07/19 01:07:44;;;;;;;0.95;0.60;;;;;;;22.01;36.90;100156.44;4372355;32;34023;-79
2022/07/19 01:10:14;;;;;;;1.42;1.33;;;;;;;22.03;37.13;100149.25;4372395;32;34109;-79
2022/07/19 01:12:44;;;;;;;2.42;0.52;;;;;;;21.92;36.83;100144.56;4371964;32;33838;-78
2022/07/19 01:15:16;;;;;;;1.48;1.08;;;;;;;21.46;36.94;100148.75;4376683;32;33853;-78
2022/07/19 01:17:46;;;;;;;2.05;0.60;;;;;;;21.67;36.51;100145.00;4372304;32;34342;-79
2022/07/19 01:20:17;;;;;;;1.55;0.57;;;;;;;21.65;36.71;100151.28;4360323;32;35058;-78
2022/07/19 01:22:48;;;;;;;0.70;0.57;;;;;;;21.45;36.90;100141.75;4373871;32;33580;-78
2022/07/19 01:25:17;;;;;;;1.48;0.70;;;;;;;21.44;37.30;100145.34;4374149;32;33685;-78
2022/07/19 01:27:50;;;;;;;1.15;0.55;;;;;;;21.52;36.96;100151.91;4375800;32;34549;-79
2022/07/19 01:30:20;;;;;;;0.85;0.60;;;;;;;21.55;37.31;100147.41;4378660;32;33847;-79
2022/07/19 01:32:51;;;;;;;1.75;0.82;;;;;;;21.41;37.48;100148.13;4375637;32;33858;-78
2022/07/19 01:35:20;;;;;;;1.90;0.65;;;;;;;21.27;37.94;100138.25;4373711;32;33936;-78
2022/07/19 01:37:53;;;;;;;1.52;0.70;;;;;;;21.30;37.82;100136.28;4373734;32;34059;-78
2022/07/19 01:40:23;;;;;;;2.47;0.80;;;;;;;21.26;37.90;100144.44;4373702;32;33874;-77
2022/07/19 01:42:52;;;;;;;2.70;0.68;;;;;;;21.18;37.93;100139.53;4378413;32;33387;-77
2022/07/19 01:45:21;;;;;;;1.17;0.75;;;;;;;21.19;38.05;100133.34;4373685;32;33699;-78
2022/07/19 01:47:54;;;;;;;2.60;0.75;;;;;;;21.07;38.46;100139.25;4360102;32;33369;-77
2022/07/19 01:50:22;;;;;;;0.45;0.45;;;;;;;20.99;38.52;100136.09;4375861;32;34788;-77
2022/07/19 01:52:56;;;;;;;1.08;0.60;;;;;;;21.09;38.13;100132.06;4373967;32;33308;-77
2022/07/19 01:55:25;;;;;;;1.83;0.68;;;;;;;20.91;37.94;100133.84;4373739;32;34031;-78
2022/07/19 01:57:54;;;;;;;1.45;1.00;;;;;;;20.87;38.42;100142.81;4390019;32;34604;-79
2022/07/19 02:00:24;;;;;;;2.22;0.82;;;;;;;20.92;38.47;100137.34;4388774;32;34117;-77
2022/07/19 02:02:58;;;;;;;0.57;0.55;;;;;;;20.83;38.87;100134.22;4388451;32;33773;-78
2022/07/19 02:05:27;;;;;;;1.12;0.70;;;;;;;21.01;38.18;100132.47;4373891;32;34428;-78
2022/07/19 02:08:02;;;;;;;1.15;0.50;;;;;;;20.87;38.58;100135.75;4374924;32;33930;-79
2022/07/19 02:10:32;;;;;;;0.77;0.70;;;;;;;20.84;38.75;100135.91;4378278;32;33912;-78
2022/07/19 02:13:03;;;;;;;0.80;0.60;;;;;;;20.92;38.61;100139.97;4374343;32;35472;-78
2022/07/19 02:15:37;;;;;;;1.30;0.85;;;;;;;20.81;38.48;100140.50;4374870;32;33554;-78
2022/07/19 02:18:09;;;;;;;0.65;0.43;;;;;;;20.83;38.49;100144.78;4374114;32;34640;-77
2022/07/19 02:20:40;;;;;;;;;;;;;;;20.78;39.49;100143.28;4375577;32;34056;-78
2022/07/19 02:23:14;;;;;;;0.73;0.70;;;;;;;20.71;39.29;100139.22;4375277;32;33597;-79
2022/07/19 02:25:45;;;;;;;0.75;0.60;;;;;;;20.80;39.11;100147.56;4378411;32;33786;-78
2022/07/19 02:28:14;;;;;;;1.17;0.75;;;;;;;20.73;39.75;100154.06;4374618;32;33798;-78
2022/07/19 02:30:46;;;;;;;0.82;0.60;;;;;;;20.56;39.91;100146.06;4373909;32;34047;-79
2022/07/19 02:33:15;;;;;;;0.82;0.62;;;;;;;20.51;39.66;100145.41;4373820;32;33381;-78
2022/07/19 02:35:47;;;;;;;2.08;0.70;;;;;;;20.58;39.50;100152.13;4374286;32;33834;-79
2022/07/19 02:38:17;;;;;;;0.60;0.60;;;;;;;20.56;39.60;100148.72;4377237;32;34813;-78
2022/07/19 02:40:50;;;;;;;1.77;0.80;;;;;;;20.55;39.34;100144.34;4377986;32;34119;-80
2022/07/19 02:43:19;;;;;;;1.20;0.50;;;;;;;20.50;39.36;100149.84;4373073;32;33619;-80
2022/07/19 02:45:48;;;;;;;0.73;0.55;;;;;;;20.59;39.49;100154.72;4373813;32;33712;-78
2022/07/19 02:48:20;;;;;;;0.52;0.52;;;;;;;20.56;39.20;100152.22;4373184;32;33261;-79
2022/07/19 02:50:51;;;;;;;2.10;0.60;;;;;;;20.61;38.62;100150.22;4377544;32;33761;-79
2022/07/19 02:53:22;;;;;;;1.62;0.62;;;;;;;20.33;39.57;100136.59;4375165;32;34405;-78
2022/07/19 02:55:54;;;;;;;0.50;0.50;;;;;;;20.56;39.08;100146.06;4388194;32;36629;-80
2022/07/19 02:58:23;;;;;;;1.17;0.60;;;;;;;20.59;39.13;100151.22;4388280;32;33602;-79
2022/07/19 03:00:52;;;;;;;1.33;0.55;;;;;;;20.53;39.46;100148.84;4388390;32;34162;-78
2022/07/19 03:06:23;;;;;;;1.98;1.12;;;;;;;20.67;39.01;100149.91;4327396;33;34641;-79
2022/07/19 03:08:54;;;;;;;0.50;0.50;;;;;;;20.76;39.21;100164.47;4331646;33;34001;-78
2022/07/19 03:11:26;;;;;;;0.82;0.60;;;;;;;20.38;39.51;100153.03;4327342;33;34988;-78
2022/07/19 03:13:55;;;;;;;1.65;0.70;;;;;;;20.58;38.65;100157.41;4327437;33;34011;-78
2022/07/19 03:16:27;;;;;;;1.83;0.85;;;;;;;20.66;38.21;100155.28;4327263;33;33712;-79
2022/07/19 03:18:56;;;;;;;0.75;0.62;;;;;;;20.48;38.90;100153.47;4327228;33;33999;-77
2022/07/19 03:21:30;;;;;;;0.93;0.70;;;;;;;20.55;38.75;100152.25;4331146;33;34078;-80
2022/07/19 03:24:06;;;;;;;1.20;0.70;;;;;;;20.37;39.07;100152.19;4324233;33;33828;-80
2022/07/19 03:26:35;;;;;;;0.88;0.60;;;;;;;20.62;38.46;100159.84;4311925;33;33736;-80
2022/07/19 03:29:09;;;;;;;1.10;0.50;;;;;;;20.81;38.73;100161.59;4311893;33;33839;-78
2022/07/19 03:31:38;;;;;;;1.08;0.62;;;;;;;20.69;38.80;100163.03;4311611;33;33616;-79
2022/07/19 03:34:10;;;;;;;1.30;0.52;;;;;;;20.75;38.90;100162.72;4311988;33;34445;-79
2022/07/19 03:36:38;;;;;;;0.50;0.50;;;;;;;20.54;39.82;100161.06;4316285;33;34637;-79
2022/07/19 03:39:11;;;;;;;1.25;0.65;;;;;;;20.60;39.54;100166.09;4311890;33;34405;-80
2022/07/19 03:41:40;;;;;;;1.90;0.70;;;;;;;20.49;39.68;100169.22;4365629;32;33854;-79
2022/07/19 03:44:11;;;;;;;0.65;0.55;;;;;;;20.49;39.64;100176.25;4372801;32;34325;-79
2022/07/19 03:46:40;;;;;;;0.77;0.43;;;;;;;20.57;39.50;100179.44;4373549;32;33910;-78
2022/07/19 03:49:10;;;;;;;1.10;0.70;;;;;;;20.62;40.51;100174.81;4377763;32;33735;-80
2022/07/19 03:51:39;;;;;;;1.33;0.65;;;;;;;20.60;40.58;100179.28;4376356;32;34422;-79
2022/07/19 03:54:11;;;;;;;2.08;0.65;;;;;;;20.63;40.22;100179.13;4380123;32;33633;-78
2022/07/19 03:56:43;;;;;;;0.80;0.77;;;;;;;20.71;40.99;100182.28;4388907;32;34373;-79
2022/07/19 03:59:12;;;;;;;1.48;0.75;;;;;;;20.49;41.29;100186.78;4390706;32;34911;-80
2022/07/19 04:01:44;;;;;;;0.95;0.75;;;;;;;20.45;41.00;100188.72;4390136;32;34164;-79
2022/07/19 04:04:19;;;;;;;0.75;0.50;;;;;;;20.62;39.81;100182.72;4382193;32;33709;-79
2022/07/19 04:06:48;;;;;;;1.40;0.68;;;;;;;20.81;38.78;100191.47;4373577;32;33702;-79
2022/07/19 04:09:21;;;;;;;1.65;0.57;;;;;;;20.72;39.62;100194.53;4373447;32;33779;-80
2022/07/19 04:11:50;;;;;;;1.75;0.80;;;;;;;20.52;39.90;100195.44;4373041;32;34692;-80
2022/07/19 04:14:21;;;;;;;0.90;0.65;;;;;;;20.48;40.49;100200.91;4372983;32;33604;-79
2022/07/19 04:16:50;;;;;;;0.88;0.65;;;;;;;20.46;40.07;100201.84;4376686;32;33992;-79
2022/07/19 04:19:22;;;;;;;1.08;0.80;;;;;;;20.58;39.39;100194.31;4377585;32;34036;-80
2022/07/19 04:21:53;;;;;;;2.60;0.70;;;;;;;20.78;39.41;100194.25;4372618;32;34220;-79
2022/07/19 04:24:27;;;;;;;0.75;0.50;;;;;;;20.73;39.67;100201.53;4372576;32;33712;-78
2022/07/19 04:26:55;;;;;;;1.75;0.82;;;;;;;20.96;39.60;100203.06;4372249;32;34141;-80
2022/07/19 04:29:25;;;;;;;1.15;0.80;;;;;;;21.04;39.34;100198.25;4372791;32;34231;-80
2022/07/19 04:31:54;;;;;;;0.77;0.50;;;;;;;21.02;40.46;100207.16;4377176;32;34820;-79
2022/07/19 04:34:28;;;;;;;1.05;0.57;;;;;;;20.87;40.53;100212.25;4372511;32;33208;-79
2022/07/19 04:36:57;;;;;;;1.65;0.62;;;;;;;21.19;39.76;100209.00;4374404;32;33053;-79
2022/07/19 04:39:28;;;;;;;0.82;0.65;;;;;;;21.26;39.21;100213.03;4374512;32;34031;-79
2022/07/19 04:41:56;;;;;;;0.50;0.50;;;;;;;21.32;39.46;100212.75;4376242;32;34272;-79
2022/07/19 04:44:28;;;;;;;1.25;0.60;;;;;;;21.37;39.94;100210.72;4377447;32;34387;-79
2022/07/19 04:46:56;;;;;;;0.80;0.52;;;;;;;21.43;39.41;100207.84;4377186;32;33906;-80
2022/07/19 04:49:31;;;;;;;1.17;0.70;;;;;;;21.58;39.07;100206.22;4376143;32;34006;-80
2022/07/19 04:52:00;;;;;;;1.87;0.60;;;;;;;21.56;39.47;100212.50;4374707;32;34207;-79
2022/07/19 04:54:32;;;;;;;0.95;0.70;;;;;;;22.04;39.37;100219.69;4382509;32;33635;-79
2022/07/19 04:57:01;;;;;;;0.68;0.60;;;;;;;22.86;37.73;100204.72;4390350;32;33933;-79
2022/07/19 04:59:30;;;;;;;0.95;0.80;;;;;;;23.48;36.56;100204.75;4394087;32;34212;-79
2022/07/19 05:02:00;;;;;;;2.40;0.65;;;;;;;24.03;35.63;100199.69;4388981;32;33869;-80
2022/07/19 05:04:35;;;;;;;2.37;0.70;;;;;;;24.89;32.99;100199.63;4389356;32;34455;-80
2022/07/19 05:07:04;;;;;;;1.10;0.70;;;;;;;26.08;30.51;100197.06;4389064;32;34649;-80
2022/07/19 05:09:37;;;;;;;0.52;0.40;;;;;;;26.98;29.95;100200.41;4389209;32;33686;-80
2022/07/19 05:12:10;;;;;;;1.65;0.75;;;;;;;27.87;28.41;100193.75;4388878;32;33968;-80
2022/07/19 05:14:46;;;;;;;4.82;0.82;;;;;;;28.60;28.12;100202.28;4393997;32;33288;-80
2022/07/19 05:17:18;;;;;;;0.57;0.50;;;;;;;29.08;26.19;100202.78;4388843;32;34757;-79
2022/07/19 05:19:47;;;;;;;1.95;0.50;;;;;;;29.27;26.38;100204.78;4389057;32;34077;-80
2022/07/19 05:22:18;;;;;;;0.85;0.37;;;;;;;29.58;26.68;100210.25;4388943;32;34851;-80
2022/07/19 05:24:48;;;;;;;1.42;0.50;;;;;;;29.72;26.93;100206.41;4390214;32;33708;-80
2022/07/19 05:27:23;;;;;;;2.62;0.80;;;;;;;29.73;25.49;100200.94;4393951;32;34026;-80
2022/07/19 05:29:51;;;;;;;1.87;0.50;;;;;;;29.76;24.99;100206.00;4394012;32;33855;-79
2022/07/19 05:32:21;;;;;;;1.02;0.50;;;;;;;29.60;24.74;100207.41;4393189;32;34560;-81
2022/07/19 05:34:52;;;;;;;0.73;0.40;;;;;;;29.71;25.42;100200.22;4389848;32;34503;-79
2022/07/19 05:37:24;;;;;;;2.03;0.60;;;;;;;29.52;25.78;100213.41;4390171;32;33759;-79
2022/07/19 05:39:54;;;;;;;3.37;0.62;;;;;;;29.44;25.29;100214.06;4389098;32;33313;-79
2022/07/19 05:42:26;;;;;;;1.67;0.52;;;;;;;29.45;25.17;100206.91;4393821;32;33994;-79
2022/07/19 05:44:55;;;;;;;0.77;0.47;;;;;;;29.34;25.07;100205.97;4389241;32;33720;-80
2022/07/19 05:47:30;;;;;;;1.02;0.55;;;;;;;29.13;25.28;100197.06;4388879;32;33884;-79
2022/07/19 05:49:59;;;;;;;0.95;0.32;;;;;;;29.17;25.47;100201.19;4388807;32;34090;-80
2022/07/19 05:52:31;;;;;;;2.08;0.90;;;;;;;28.94;25.18;100209.22;4389117;32;33812;-80
2022/07/19 05:55:14;;;;;;;0.82;0.60;;;;;;;28.73;25.39;100205.66;4389223;32;33600;-80
2022/07/19 05:57:43;;;;;;;0.80;0.50;;;;;;;28.87;25.17;100200.03;4393392;32;33792;-80
2022/07/19 06:00:14;;;;;;;1.75;0.62;;;;;;;28.83;25.72;100197.75;4389148;32;33814;-81
2022/07/19 06:02:43;;;;;;;2.17;0.50;;;;;;;28.73;25.85;100197.66;4388539;32;34838;-80
2022/07/19 06:05:14;;;;;;;1.20;0.47;;;;;;;28.88;26.02;100199.06;4383043;32;33302;-79
2022/07/19 06:07:43;;;;;;;1.60;0.70;;;;;;;28.94;25.36;100198.53;4373614;32;33973;-80
2022/07/19 06:10:20;;;;;;;0.98;0.60;;;;;;;28.35;25.92;100200.69;4378404;32;34865;-81
2022/07/19 06:12:49;;;;;;;1.10;0.50;;;;;;;28.21;26.48;100196.44;4378467;32;33906;-80
2022/07/19 06:15:22;;;;;;;0.57;0.43;;;;;;;28.09;26.80;100212.44;4375085;32;33942;-80
2022/07/19 06:17:52;;;;;;;1.10;0.50;;;;;;;27.98;27.13;100204.44;4374658;32;33981;-81
2022/07/19 06:20:28;;;;;;;5.00;0.50;;;;;;;27.75;27.94;100206.19;4373622;32;34586;-79
2022/07/19 06:23:00;;;;;;;2.45;0.70;;;;;;;27.85;27.75;100203.69;4373534;32;34248;-80
2022/07/19 06:25:30;;;;;;;1.37;0.68;;;;;;;27.61;28.50;100198.38;4378238;32;33717;-81
2022/07/19 06:27:59;;;;;;;2.00;1.17;;;;;;;27.20;28.41;100199.69;4373737;32;32955;-80
2022/07/19 06:30:31;;;;;;;0.80;0.50;;;;;;;27.29;27.88;100206.16;4373965;32;33172;-80
2022/07/19 06:33:05;;;;;;;1.55;0.73;;;;;;;27.15;28.42;100202.66;4373781;32;34887;-80
2022/07/19 06:35:33;;;;;;;1.37;1.00;;;;;;;26.94;28.50;100206.91;4373328;32;34266;-80
2022/07/19 06:38:05;;;;;;;3.22;0.52;;;;;;;27.00;28.53;100203.81;4373317;32;33972;-80
2022/07/19 06:40:35;;;;;;;4.22;0.80;;;;;;;27.05;29.01;100203.47;4378475;32;33908;-80
2022/07/19 06:43:09;;;;;;;2.08;0.80;;;;;;;26.86;29.40;100198.66;4373299;32;33237;-80
2022/07/19 06:45:38;;;;;;;2.55;0.70;;;;;;;27.13;28.22;100204.59;4373855;32;34424;-81
2022/07/19 06:48:09;;;;;;;1.12;0.47;;;;;;;26.92;28.37;100206.19;4359653;32;33419;-80
2022/07/19 06:50:37;;;;;;;3.47;1.17;;;;;;;27.20;27.95;100211.19;4373531;32;34906;-80
2022/07/19 06:53:12;;;;;;;2.10;1.52;;;;;;;27.14;27.83;100206.31;4378195;32;33907;-79
2022/07/19 06:55:43;;;;;;;0.98;0.47;;;;;;;27.11;28.59;100206.53;4377888;32;33573;-79
2022/07/19 06:58:16;;;;;;;4.85;0.50;;;;;;;27.08;27.05;100205.91;4387429;32;33956;-80
2022/07/19 07:00:48;;;;;;;5.22;0.65;;;;;;;26.95;27.38;100197.97;4374835;32;33441;-81
2022/07/19 07:03:19;;;;;;;3.92;0.52;;;;;;;27.32;27.00;100205.91;4388279;32;33882;-80
2022/07/19 07:05:58;;;;;;;2.78;0.60;;;;;;;27.20;26.93;100197.88;4388563;32;33616;-79
2022/07/19 07:08:27;;;;;;;3.53;1.00;;;;;;;27.44;26.71;100199.66;4393212;32;33679;-80
2022/07/19 07:11:01;;;;;;;1.92;0.70;;;;;;;27.58;26.02;100201.28;4391021;32;35846;-79
2022/07/19 07:13:31;;;;;;;1.35;0.60;;;;;;;27.21;26.90;100193.41;4388888;32;33705;-81
2022/07/19 07:16:07;;;;;;;0.62;0.40;;;;;;;27.61;26.25;100185.91;4387969;32;34310;-81
2022/07/19 07:18:39;;;;;;;2.77;1.43;;;;;;;28.01;25.18;100182.03;4388500;32;34721;-81
2022/07/19 07:21:08;;;;;;;1.10;0.50;;;;;;;27.57;26.06;100188.91;4388630;32;33968;-80
2022/07/19 07:23:41;;;;;;;1.10;0.60;;;;;;;27.63;25.97;100181.31;4392789;32;34209;-80
2022/07/19 07:26:12;;;;;;;0.70;0.50;;;;;;;27.57;24.97;100179.13;4388643;32;33632;-79
2022/07/19 07:28:42;;;;;;;4.28;0.60;;;;;;;27.91;25.45;100187.22;4388526;32;34765;-80
2022/07/19 07:31:11;;;;;;;0.73;0.40;;;;;;;28.06;24.95;100179.84;4388292;32;33917;-80
2022/07/19 07:33:42;;;;;;;0.50;0.35;;;;;;;28.16;25.02;100179.97;4388025;32;34042;-79
2022/07/19 07:36:12;;;;;;;1.42;0.45;;;;;;;28.20;24.98;100178.75;4389541;32;34200;-80
2022/07/19 07:38:41;;;;;;;5.22;0.70;;;;;;;28.46;24.10;100179.34;4392604;32;34617;-79
2022/07/19 07:41:14;;;;;;;1.15;0.52;;;;;;;28.56;24.21;100176.78;4388446;32;35534;-80
2022/07/19 07:44:12;;;;;;;12.65;0.90;;;;;;;28.56;24.08;100167.00;4391417;32;33967;-79
2022/07/19 07:46:41;;;;;;;2.62;0.50;;;;;;;28.58;24.07;100174.84;4387983;32;33560;-80
2022/07/19 07:49:10;;;;;;;0.45;0.32;;;;;;;28.67;24.27;100171.44;4388074;32;33769;-79
2022/07/19 07:51:39;;;;;;;0.20;0.20;;;;;;;28.78;23.74;100174.09;4388937;32;33766;-80
2022/07/19 07:54:20;;;;;;;0.60;0.30;;;;;;;29.01;21.15;100176.69;4392665;32;34882;-80
2022/07/19 07:56:56;;;;;;;0.60;0.40;;;;;;;29.12;20.88;100174.00;4389348;32;33627;-80
2022/07/19 07:59:26;;;;;;;0.88;0.35;;;;;;;29.37;20.35;100182.66;4389193;32;33855;-79
2022/07/19 08:01:55;;;;;;;0.60;0.30;;;;;;;29.49;21.30;100176.25;4388920;32;34419;-80
2022/07/19 08:04:27;;;;;;;1.90;0.50;;;;;;;29.52;21.70;100186.69;4389866;32;34419;-80
2022/07/19 08:06:59;;;;;;;0.60;0.37;;;;;;;29.60;21.18;100176.22;4389988;32;34347;-81
2022/07/19 08:09:28;;;;;;;0.40;0.25;;;;;;;29.77;21.87;100181.00;4392600;32;33778;-81
2022/07/19 08:11:59;;;;;;;0.82;0.50;;;;;;;29.88;21.01;100176.53;4389361;32;33863;-80
2022/07/19 08:14:28;;;;;;;1.45;0.40;;;;;;;29.75;21.15;100177.59;4388540;32;33731;-80
2022/07/19 08:17:03;;;;;;;0.85;0.37;;;;;;;29.76;21.09;100175.75;4387549;32;34291;-80
2022/07/19 08:19:32;;;;;;;0.75;0.55;;;;;;;29.39;21.54;100184.22;4388381;32;34030;-79
2022/07/19 08:22:02;;;;;;;0.30;0.30;;;;;;;29.39;21.55;100170.00;4392941;32;34805;-81
2022/07/19 08:24:31;;;;;;;0.30;0.20;;;;;;;29.84;20.95;100175.97;4387579;32;34206;-81
2022/07/19 08:27:07;;;;;;;0.32;0.25;;;;;;;29.48;21.03;100177.22;4387249;32;34373;-81
2022/07/19 08:29:35;;;;;;;1.27;0.40;;;;;;;29.91;21.99;100178.94;4387295;32;33923;-80
2022/07/19 08:32:06;;;;;;;0.65;0.43;;;;;;;30.26;21.87;100170.53;4387471;32;34265;-81
2022/07/19 08:34:35;;;;;;;0.40;0.28;;;;;;;29.88;21.23;100171.19;4388072;32;34189;-81
2022/07/19 08:37:07;;;;;;;0.55;0.20;;;;;;;30.18;22.11;100165.84;4392531;32;34493;-81
2022/07/19 08:39:36;;;;;;;0.82;0.30;;;;;;;30.39;21.29;100163.09;4387730;32;34349;-80
2022/07/19 08:42:09;;;;;;;0.95;0.40;;;;;;;29.83;20.38;100168.91;4388834;32;34894;-80
2022/07/19 08:44:39;;;;;;;0.47;0.30;;;;;;;30.15;20.50;100163.41;4389829;32;34056;-80
2022/07/19 08:47:11;;;;;;;1.10;0.30;;;;;;;30.18;20.79;100163.16;4391319;32;33505;-81
2022/07/19 08:49:42;;;;;;;0.35;0.35;;;;;;;30.47;21.23;100157.09;4391201;32;33633;-80
2022/07/19 08:52:15;;;;;;;0.60;0.40;;;;;;;30.86;21.10;100161.69;4392323;32;34986;-80
2022/07/19 08:54:44;;;;;;;1.37;0.85;;;;;;;30.70;21.09;100159.53;4390991;32;34037;-80
2022/07/19 09:00:07;;;;;;;0.32;0.20;;;;;;;30.31;21.20;100152.25;4387992;32;34208;-80
2022/07/19 09:02:54;;;;;;;1.67;0.37;;;;;;;30.80;21.08;100163.06;4387730;32;33985;-81
2022/07/19 09:05:27;;;;;;;0.82;0.25;;;;;;;30.87;21.08;100158.03;4387212;32;34179;-80
2022/07/19 09:08:10;;;;;;;1.65;0.50;;;;;;;30.91;20.38;100157.62;4392046;32;33471;-80
2022/07/19 09:10:43;;;;;;;1.65;0.70;;;;;;;30.71;20.73;100154.03;4391411;32;33642;-80
2022/07/19 09:13:15;;;;;;;0.70;0.30;;;;;;;30.68;21.20;100158.81;4387153;32;34528;-80
2022/07/19 09:15:47;;;;;;;0.77;0.37;;;;;;;31.01;21.88;100150.41;4387126;32;34397;-80
2022/07/19 09:18:18;;;;;;;1.67;0.50;;;;;;;30.94;20.13;100151.12;4386924;32;34292;-81
2022/07/19 09:20:52;;;;;;;0.30;0.30;;;;;;;31.11;20.84;100147.75;4387156;32;33719;-81
2022/07/19 09:23:26;;;;;;;3.37;0.47;;;;;;;31.41;21.03;100145.91;4391605;32;34271;-80
2022/07/19 09:25:56;;;;;;;0.47;0.28;;;;;;;31.38;19.81;100147.00;4388042;32;33903;-81
2022/07/19 09:28:34;;;;;;;0.73;0.30;;;;;;;31.42;19.97;100148.44;4386774;32;32925;-80
2022/07/19 09:31:07;;;;;;;0.93;0.32;;;;;;;31.51;21.22;100138.72;4381020;32;33614;-80
2022/07/19 09:33:46;;;;;;;0.57;0.30;;;;;;;31.56;20.05;100146.31;4375114;32;34147;-80
2022/07/19 09:36:16;;;;;;;0.85;0.30;;;;;;;31.73;20.24;100145.56;4375772;32;34280;-81
2022/07/19 09:38:44;;;;;;;0.90;0.40;;;;;;;31.86;20.02;100153.28;4376350;32;33512;-81
2022/07/19 09:41:17;;;;;;;0.68;0.35;;;;;;;31.63;19.84;100150.97;4376647;32;33342;-81
2022/07/19 09:43:56;;;;;;;0.50;0.30;;;;;;;31.52;20.13;100143.06;4374987;32;34096;-80
2022/07/19 09:46:29;;;;;;;4.22;1.95;;;;;;;31.84;20.01;100142.69;4373915;32;34808;-80
2022/07/19 09:49:06;;;;;;;1.40;0.52;;;;;;;31.56;21.35;100133.75;4374505;32;33158;-79
2022/07/19 09:51:36;;;;;;;0.47;0.30;;;;;;;32.00;19.32;100139.41;4373738;32;34355;-80
2022/07/19 09:54:11;;;;;;;0.80;0.32;;;;;;;31.72;20.45;100135.81;4378224;32;34798;-79
2022/07/19 09:56:48;;;;;;;0.82;0.57;;;;;;;31.39;23.05;100127.28;4381985;32;34071;-81
2022/07/19 09:59:24;;;;;;;0.55;0.40;;;;;;;31.91;20.35;100134.06;4388427;32;33676;-80
2022/07/19 10:01:54;;;;;;;0.40;0.30;;;;;;;31.80;19.45;100124.34;4374451;32;33059;-81
2022/07/19 10:04:26;;;;;;;0.30;0.30;;;;;;;31.98;19.98;100132.50;4373288;32;33540;-80
2022/07/19 10:06:54;;;;;;;0.50;0.35;;;;;;;31.72;20.13;100133.13;4373840;32;34138;-81
2022/07/19 10:09:28;;;;;;;5.30;0.82;;;;;;;31.72;19.91;100132.28;4378781;32;33388;-81
2022/07/19 10:12:00;;;;;;;1.05;0.62;;;;;;;31.77;19.67;100135.37;4378068;32;36276;-80
2022/07/19 10:14:36;;;;;;;0.73;0.30;;;;;;;31.46;19.87;100131.09;4373602;32;35043;-79
2022/07/19 10:17:28;;;;;;;0.85;0.40;;;;;;;31.99;19.90;100123.47;4373693;32;33795;-81
2022/07/19 10:20:03;;;;;;;0.73;0.35;;;;;;;32.27;19.82;100121.63;4373305;32;33652;-81
2022/07/19 10:22:39;;;;;;;0.97;0.47;;;;;;;32.26;19.50;100118.13;4373655;32;33581;-80
2022/07/19 10:25:18;;;;;;;0.82;0.40;;;;;;;32.27;19.29;100130.53;4373436;32;34697;-80
2022/07/19 10:27:50;;;;;;;1.87;0.40;;;;;;;31.91;19.21;100123.34;4378493;32;34699;-81
2022/07/19 10:30:23;;;;;;;3.83;0.62;;;;;;;32.37;20.68;100118.91;4374682;32;33752;-80
2022/07/19 10:33:02;;;;;;;0.75;0.28;;;;;;;32.84;20.48;100119.59;4376156;32;33375;-77
2022/07/19 10:35:32;;;;;;;0.73;0.35;;;;;;;33.08;19.29;100116.31;4373702;32;34099;-80
2022/07/19 10:38:11;;;;;;;1.05;0.50;;;;;;;32.40;18.88;100115.91;4373492;32;34551;-78
2022/07/19 10:40:46;;;;;;;0.60;0.20;;;;;;;32.46;18.72;100121.53;4373569;32;33598;-79
2022/07/19 10:43:16;;;;;;;1.52;0.52;;;;;;;32.77;18.60;100117.69;4375899;32;34128;-79
2022/07/19 10:46:13;;;;;;;1.10;0.32;;;;;;;32.68;18.90;100111.37;4378243;32;34282;-78
2022/07/19 10:48:43;;;;;;;8.27;0.80;;;;;;;33.47;20.54;100110.53;4373432;32;34712;-80
2022/07/19 10:51:30;;;;;;;1.00;0.50;;;;;;;33.64;19.18;100111.50;4373347;32;34353;-79
2022/07/19 10:54:03;;;;;;;0.65;0.47;;;;;;;33.67;18.69;100113.03;4378200;32;33459;-79
2022/07/19 10:56:43;;;;;;;1.25;0.55;;;;;;;33.50;18.32;100115.59;4387374;32;34795;-79
2022/07/19 10:59:33;;;;;;;1.35;0.40;;;;;;;33.59;18.18;100103.09;4382059;32;34422;-80
2022/07/19 11:02:24;;;;;;;0.47;0.40;;;;;;;33.62;18.44;100102.75;4382365;32;34318;-80
2022/07/19 11:05:32;;;;;;;0.73;0.30;;;;;;;34.07;18.50;100103.47;4383887;32;33827;-80
2022/07/19 11:08:01;;;;;;;2.30;0.40;;;;;;;34.13;17.85;100092.09;4378227;32;33689;-79
2022/07/19 11:10:31;;;;;;;0.95;0.30;;;;;;;34.03;17.54;100089.50;4391706;32;34041;-80
2022/07/19 11:12:59;;;;;;;0.17;0.13;;;;;;;34.69;16.65;100093.25;4388590;32;33290;-80
2022/07/19 11:15:29;;;;;;;0.43;0.30;;;;;;;34.58;16.67;100094.41;4373639;32;33809;-80
2022/07/19 11:18:11;;;;;;;1.35;0.40;;;;;;;34.94;16.28;100083.34;4376563;32;33894;-80
2022/07/19 11:20:41;;;;;;;0.75;0.35;;;;;;;34.39;16.73;100084.75;4388943;32;34876;-81
2022/07/19 11:23:17;;;;;;;1.48;0.55;;;;;;;34.56;16.75;100079.41;4389718;32;33760;-79
2022/07/19 11:25:49;;;;;;;6.55;0.45;;;;;;;34.69;17.10;100074.37;4385511;32;32879;-80
2022/07/19 11:28:23;;;;;;;1.08;0.68;;;;;;;34.53;16.83;100077.03;4373524;32;34807;-81
2022/07/19 11:30:59;;;;;;;1.17;0.60;;;;;;;34.28;17.05;100068.91;4377239;32;34224;-80
2022/07/19 11:33:29;;;;;;;0.40;0.30;;;;;;;34.62;17.29;100060.72;4388432;32;34367;-79
2022/07/19 11:36:01;;;;;;;;;;;;;;;35.00;16.92;100065.62;4388557;32;33733;-80
2022/07/19 11:38:43;;;;;;;0.70;0.47;;;;;;;34.95;16.76;100051.81;4388928;32;34295;-81
2022/07/19 11:41:16;;;;;;;6.80;0.88;;;;;;;35.40;16.91;100053.13;4393115;32;34039;-80
2022/07/19 11:43:46;;;;;;;1.25;0.40;;;;;;;35.61;17.47;100053.44;4387957;32;34159;-79
2022/07/19 11:46:17;;;;;;;1.55;0.60;;;;;;;35.86;16.74;100051.50;4387801;32;33633;-80
2022/07/19 11:48:57;;;;;;;2.20;0.50;;;;;;;36.00;16.20;100047.19;4388395;32;34797;-81
2022/07/19 11:51:28;;;;;;;1.65;0.70;;;;;;;36.32;15.99;100042.66;4388348;32;33966;-80
2022/07/19 11:53:57;;;;;;;;;;;;;;;36.29;15.46;100051.97;4388428;32;35048;-80
2022/07/19 11:56:28;;;;;;;1.35;0.30;;;;;;;36.53;15.74;100044.69;4393004;32;34069;-81